sensor_id;sensor_type;location;lat;lon;timestamp;P1;durP1;ratioP1;P2;durP2;ratioP2
3207;SDS011;1616;52.394;9.756;2023-08-01T00:00:34;1.00;;;0.80;;
3207;SDS011;1616;52.394;9.756;2023-08-01T00:02:59;2.90;;;0.90;;
3207;SDS011;1616;52.394;9.756;2023-08-01T00:05:25;1.10;;;0.90;;
3207;SDS011;1616;52.394;9.756;2023-08-01T00:07:52;0.90;;;0.70;;
3207;SDS011;1616;52.394;9.756;2023-08-01T00:10:18;1.20;;;0.90;;
3207;SDS011;1616;52.394;9.756;2023-08-01T00:12:44;1.10;;;0.80;;
3207;SDS011;1616;52.394;9.756;2023-08-01T00:15:10;0.90;;;0.70;;
3207;SDS011;1616;52.394;9.756;2023-08-01T00:17:36;1.03;;;0.83;;
3207;SDS011;1616;52.394;9.756;2023-08-01T00:20:02;1.00;;;0.80;;
3207;SDS011;1616;52.394;9.756;2023-08-01T00:22:28;1.40;;;0.97;;
3207;SDS011;1616;52.394;9.756;2023-08-01T00:24:54;2.30;;;0.80;;
3207;SDS011;1616;52.394;9.756;2023-08-01T00:27:20;1.57;;;0.87;;
3207;SDS011;1616;52.394;9.756;2023-08-01T00:29:45;1.00;;;0.87;;
3207;SDS011;1616;52.394;9.756;2023-08-01T00:32:11;1.00;;;0.87;;
3207;SDS011;1616;52.394;9.756;2023-08-01T00:34:37;1.00;;;0.90;;
3207;SDS011;1616;52.394;9.756;2023-08-01T00:37:03;1.30;;;0.83;;
3207;SDS011;1616;52.394;9.756;2023-08-01T00:39:30;1.50;;;0.90;;
3207;SDS011;1616;52.394;9.756;2023-08-01T00:41:55;4.13;;;1.10;;
3207;SDS011;1616;52.394;9.756;2023-08-01T00:44:21;2.43;;;1.30;;
3207;SDS011;1616;52.394;9.756;2023-08-01T00:46:47;1.00;;;0.80;;
3207;SDS011;1616;52.394;9.756;2023-08-01T00:49:13;2.33;;;1.00;;
3207;SDS011;1616;52.394;9.756;2023-08-01T00:51:39;1.20;;;1.10;;
3207;SDS011;1616;52.394;9.756;2023-08-01T00:54:05;1.90;;;0.90;;
3207;SDS011;1616;52.394;9.756;2023-08-01T00:56:31;1.10;;;1.00;;
3207;SDS011;1616;52.394;9.756;2023-08-01T00:58:57;2.07;;;1.20;;
3207;SDS011;1616;52.394;9.756;2023-08-01T01:01:23;1.57;;;1.17;;
3207;SDS011;1616;52.394;9.756;2023-08-01T01:03:48;1.30;;;1.10;;
3207;SDS011;1616;52.394;9.756;2023-08-01T01:08:53;2.50;;;1.10;;
3207;SDS011;1616;52.394;9.756;2023-08-01T01:11:20;3.13;;;1.10;;
3207;SDS011;1616;52.394;9.756;2023-08-01T01:13:46;1.03;;;0.93;;
3207;SDS011;1616;52.394;9.756;2023-08-01T01:16:11;2.17;;;1.10;;
3207;SDS011;1616;52.394;9.756;2023-08-01T01:18:37;2.13;;;1.10;;
3207;SDS011;1616;52.394;9.756;2023-08-01T01:21:03;7.13;;;1.20;;
3207;SDS011;1616;52.394;9.756;2023-08-01T01:23:29;2.57;;;0.90;;
3207;SDS011;1616;52.394;9.756;2023-08-01T01:25:56;1.10;;;1.00;;
3207;SDS011;1616;52.394;9.756;2023-08-01T01:28:23;1.43;;;1.07;;
3207;SDS011;1616;52.394;9.756;2023-08-01T01:30:50;6.60;;;1.17;;
3207;SDS011;1616;52.394;9.756;2023-08-01T01:33:18;1.20;;;1.00;;
3207;SDS011;1616;52.394;9.756;2023-08-01T01:35:44;1.10;;;1.00;;
3207;SDS011;1616;52.394;9.756;2023-08-01T01:38:10;1.50;;;1.30;;
3207;SDS011;1616;52.394;9.756;2023-08-01T01:40:35;1.10;;;0.90;;
3207;SDS011;1616;52.394;9.756;2023-08-01T01:43:01;1.30;;;1.20;;
3207;SDS011;1616;52.394;9.756;2023-08-01T01:45:27;1.43;;;1.00;;
3207;SDS011;1616;52.394;9.756;2023-08-01T01:47:52;1.20;;;1.10;;
3207;SDS011;1616;52.394;9.756;2023-08-01T01:50:18;3.13;;;1.17;;
3207;SDS011;1616;52.394;9.756;2023-08-01T01:52:44;1.00;;;0.90;;
3207;SDS011;1616;52.394;9.756;2023-08-01T01:55:10;2.90;;;0.90;;
3207;SDS011;1616;52.394;9.756;2023-08-01T01:57:36;4.00;;;0.93;;
3207;SDS011;1616;52.394;9.756;2023-08-01T02:00:05;1.20;;;1.00;;
3207;SDS011;1616;52.394;9.756;2023-08-01T02:02:35;2.80;;;0.90;;
3207;SDS011;1616;52.394;9.756;2023-08-01T02:05:01;1.70;;;0.70;;
3207;SDS011;1616;52.394;9.756;2023-08-01T02:07:29;0.93;;;0.83;;
3207;SDS011;1616;52.394;9.756;2023-08-01T02:09:55;0.90;;;0.70;;
3207;SDS011;1616;52.394;9.756;2023-08-01T02:12:20;1.10;;;0.90;;
3207;SDS011;1616;52.394;9.756;2023-08-01T02:14:46;1.37;;;0.83;;
3207;SDS011;1616;52.394;9.756;2023-08-01T02:17:12;3.17;;;0.80;;
3207;SDS011;1616;52.394;9.756;2023-08-01T02:19:38;2.60;;;0.70;;
3207;SDS011;1616;52.394;9.756;2023-08-01T02:22:03;1.90;;;1.00;;
3207;SDS011;1616;52.394;9.756;2023-08-01T02:24:29;1.20;;;0.80;;
3207;SDS011;1616;52.394;9.756;2023-08-01T02:26:55;1.30;;;0.77;;
3207;SDS011;1616;52.394;9.756;2023-08-01T02:29:21;1.23;;;0.70;;
3207;SDS011;1616;52.394;9.756;2023-08-01T02:31:46;0.97;;;0.87;;
3207;SDS011;1616;52.394;9.756;2023-08-01T02:34:12;1.10;;;0.70;;
3207;SDS011;1616;52.394;9.756;2023-08-01T02:36:38;1.57;;;0.80;;
3207;SDS011;1616;52.394;9.756;2023-08-01T02:39:06;1.00;;;0.83;;
3207;SDS011;1616;52.394;9.756;2023-08-01T02:41:32;1.00;;;0.70;;
3207;SDS011;1616;52.394;9.756;2023-08-01T02:43:57;1.00;;;0.73;;
3207;SDS011;1616;52.394;9.756;2023-08-01T02:46:23;0.90;;;0.63;;
3207;SDS011;1616;52.394;9.756;2023-08-01T02:48:49;1.00;;;0.80;;
3207;SDS011;1616;52.394;9.756;2023-08-01T02:51:15;5.33;;;0.90;;
3207;SDS011;1616;52.394;9.756;2023-08-01T02:53:40;3.03;;;0.83;;
3207;SDS011;1616;52.394;9.756;2023-08-01T02:56:07;0.80;;;0.60;;
3207;SDS011;1616;52.394;9.756;2023-08-01T02:58:34;1.10;;;0.80;;
3207;SDS011;1616;52.394;9.756;2023-08-01T03:01:01;1.00;;;0.90;;
3207;SDS011;1616;52.394;9.756;2023-08-01T03:03:26;1.90;;;0.90;;
3207;SDS011;1616;52.394;9.756;2023-08-01T03:05:52;1.10;;;0.80;;
3207;SDS011;1616;52.394;9.756;2023-08-01T03:08:18;0.93;;;0.80;;
3207;SDS011;1616;52.394;9.756;2023-08-01T03:10:45;0.90;;;0.80;;
3207;SDS011;1616;52.394;9.756;2023-08-01T03:13:11;0.90;;;0.70;;
3207;SDS011;1616;52.394;9.756;2023-08-01T03:15:37;0.83;;;0.60;;
3207;SDS011;1616;52.394;9.756;2023-08-01T03:18:03;0.90;;;0.70;;
3207;SDS011;1616;52.394;9.756;2023-08-01T03:20:29;1.00;;;0.70;;
3207;SDS011;1616;52.394;9.756;2023-08-01T03:22:55;1.53;;;0.70;;
3207;SDS011;1616;52.394;9.756;2023-08-01T03:25:20;3.03;;;0.80;;
3207;SDS011;1616;52.394;9.756;2023-08-01T03:27:46;0.80;;;0.67;;
3207;SDS011;1616;52.394;9.756;2023-08-01T03:30:12;2.97;;;0.70;;
3207;SDS011;1616;52.394;9.756;2023-08-01T03:32:38;0.77;;;0.60;;
3207;SDS011;1616;52.394;9.756;2023-08-01T03:35:04;1.77;;;0.73;;
3207;SDS011;1616;52.394;9.756;2023-08-01T03:37:30;1.00;;;0.70;;
3207;SDS011;1616;52.394;9.756;2023-08-01T03:39:56;1.47;;;0.80;;
3207;SDS011;1616;52.394;9.756;2023-08-01T03:42:22;2.80;;;1.00;;
3207;SDS011;1616;52.394;9.756;2023-08-01T03:44:48;0.90;;;0.70;;
3207;SDS011;1616;52.394;9.756;2023-08-01T03:47:13;0.90;;;0.70;;
3207;SDS011;1616;52.394;9.756;2023-08-01T03:49:39;1.00;;;0.70;;
3207;SDS011;1616;52.394;9.756;2023-08-01T03:52:05;0.80;;;0.60;;
3207;SDS011;1616;52.394;9.756;2023-08-01T03:54:31;1.17;;;0.60;;
3207;SDS011;1616;52.394;9.756;2023-08-01T03:56:57;3.67;;;0.67;;
3207;SDS011;1616;52.394;9.756;2023-08-01T03:59:22;0.83;;;0.63;;
3207;SDS011;1616;52.394;9.756;2023-08-01T04:01:48;0.80;;;0.63;;
3207;SDS011;1616;52.394;9.756;2023-08-01T04:04:15;1.93;;;0.60;;
3207;SDS011;1616;52.394;9.756;2023-08-01T04:06:40;0.93;;;0.60;;
3207;SDS011;1616;52.394;9.756;2023-08-01T04:09:06;3.73;;;0.70;;
3207;SDS011;1616;52.394;9.756;2023-08-01T04:11:31;2.50;;;0.70;;
3207;SDS011;1616;52.394;9.756;2023-08-01T04:13:57;1.00;;;0.63;;
3207;SDS011;1616;52.394;9.756;2023-08-01T04:16:23;1.13;;;0.67;;
3207;SDS011;1616;52.394;9.756;2023-08-01T04:18:49;1.00;;;0.80;;
3207;SDS011;1616;52.394;9.756;2023-08-01T04:21:15;0.90;;;0.60;;
3207;SDS011;1616;52.394;9.756;2023-08-01T04:23:41;1.20;;;0.70;;
3207;SDS011;1616;52.394;9.756;2023-08-01T04:26:07;0.80;;;0.60;;
3207;SDS011;1616;52.394;9.756;2023-08-01T04:28:33;2.03;;;0.80;;
3207;SDS011;1616;52.394;9.756;2023-08-01T04:30:59;2.13;;;0.80;;
3207;SDS011;1616;52.394;9.756;2023-08-01T04:33:25;1.10;;;0.80;;
3207;SDS011;1616;52.394;9.756;2023-08-01T04:35:51;1.10;;;0.70;;
3207;SDS011;1616;52.394;9.756;2023-08-01T04:38:17;4.20;;;0.60;;
3207;SDS011;1616;52.394;9.756;2023-08-01T04:40:42;1.33;;;0.80;;
3207;SDS011;1616;52.394;9.756;2023-08-01T04:43:09;1.13;;;0.87;;
3207;SDS011;1616;52.394;9.756;2023-08-01T04:45:35;1.00;;;0.60;;
3207;SDS011;1616;52.394;9.756;2023-08-01T04:48:01;1.00;;;0.80;;
3207;SDS011;1616;52.394;9.756;2023-08-01T04:50:28;2.90;;;0.80;;
3207;SDS011;1616;52.394;9.756;2023-08-01T04:52:53;0.90;;;0.60;;
3207;SDS011;1616;52.394;9.756;2023-08-01T04:55:19;1.10;;;0.90;;
3207;SDS011;1616;52.394;9.756;2023-08-01T04:57:45;1.97;;;0.80;;
3207;SDS011;1616;52.394;9.756;2023-08-01T05:00:11;1.10;;;0.80;;
3207;SDS011;1616;52.394;9.756;2023-08-01T05:02:37;1.00;;;0.90;;
3207;SDS011;1616;52.394;9.756;2023-08-01T05:05:03;1.13;;;0.90;;
3207;SDS011;1616;52.394;9.756;2023-08-01T05:07:29;0.80;;;0.60;;
3207;SDS011;1616;52.394;9.756;2023-08-01T05:09:55;2.13;;;0.70;;
3207;SDS011;1616;52.394;9.756;2023-08-01T05:12:23;1.10;;;0.90;;
3207;SDS011;1616;52.394;9.756;2023-08-01T05:14:48;2.70;;;0.90;;
3207;SDS011;1616;52.394;9.756;2023-08-01T05:17:14;1.00;;;0.80;;
3207;SDS011;1616;52.394;9.756;2023-08-01T05:19:40;1.20;;;0.80;;
3207;SDS011;1616;52.394;9.756;2023-08-01T05:22:06;1.10;;;0.90;;
3207;SDS011;1616;52.394;9.756;2023-08-01T05:24:32;1.63;;;1.00;;
3207;SDS011;1616;52.394;9.756;2023-08-01T05:26:57;5.40;;;0.90;;
3207;SDS011;1616;52.394;9.756;2023-08-01T05:29:23;0.97;;;0.80;;
3207;SDS011;1616;52.394;9.756;2023-08-01T05:31:49;1.23;;;0.80;;
3207;SDS011;1616;52.394;9.756;2023-08-01T05:34:14;9.60;;;0.80;;
3207;SDS011;1616;52.394;9.756;2023-08-01T05:36:40;4.93;;;0.80;;
3207;SDS011;1616;52.394;9.756;2023-08-01T05:39:06;5.90;;;0.70;;
3207;SDS011;1616;52.394;9.756;2023-08-01T05:41:32;1.83;;;0.80;;
3207;SDS011;1616;52.394;9.756;2023-08-01T05:43:58;1.30;;;0.90;;
3207;SDS011;1616;52.394;9.756;2023-08-01T05:46:24;3.33;;;1.00;;
3207;SDS011;1616;52.394;9.756;2023-08-01T05:48:49;10.90;;;0.83;;
3207;SDS011;1616;52.394;9.756;2023-08-01T05:51:15;6.50;;;0.97;;
3207;SDS011;1616;52.394;9.756;2023-08-01T05:53:40;1.10;;;0.90;;
3207;SDS011;1616;52.394;9.756;2023-08-01T05:56:06;1.17;;;0.90;;
3207;SDS011;1616;52.394;9.756;2023-08-01T05:58:32;5.33;;;1.20;;
3207;SDS011;1616;52.394;9.756;2023-08-01T06:00:57;1.83;;;1.13;;
3207;SDS011;1616;52.394;9.756;2023-08-01T06:03:23;3.00;;;1.10;;
3207;SDS011;1616;52.394;9.756;2023-08-01T06:05:49;2.43;;;1.67;;
3207;SDS011;1616;52.394;9.756;2023-08-01T06:08:15;2.30;;;1.10;;
3207;SDS011;1616;52.394;9.756;2023-08-01T06:10:41;1.97;;;1.40;;
3207;SDS011;1616;52.394;9.756;2023-08-01T06:13:07;1.70;;;0.90;;
3207;SDS011;1616;52.394;9.756;2023-08-01T06:15:33;3.67;;;1.10;;
3207;SDS011;1616;52.394;9.756;2023-08-01T06:17:59;5.93;;;1.30;;
3207;SDS011;1616;52.394;9.756;2023-08-01T06:20:25;5.80;;;1.10;;
3207;SDS011;1616;52.394;9.756;2023-08-01T06:22:50;6.63;;;1.50;;
3207;SDS011;1616;52.394;9.756;2023-08-01T06:25:16;5.40;;;1.27;;
3207;SDS011;1616;52.394;9.756;2023-08-01T06:27:42;1.90;;;1.40;;
3207;SDS011;1616;52.394;9.756;2023-08-01T06:30:08;2.33;;;1.77;;
3207;SDS011;1616;52.394;9.756;2023-08-01T06:32:34;6.13;;;1.80;;
3207;SDS011;1616;52.394;9.756;2023-08-01T06:34:59;2.37;;;1.40;;
3207;SDS011;1616;52.394;9.756;2023-08-01T06:37:25;2.10;;;1.60;;
3207;SDS011;1616;52.394;9.756;2023-08-01T06:39:50;4.93;;;1.80;;
3207;SDS011;1616;52.394;9.756;2023-08-01T06:42:16;4.50;;;1.70;;
3207;SDS011;1616;52.394;9.756;2023-08-01T06:44:42;2.90;;;2.13;;
3207;SDS011;1616;52.394;9.756;2023-08-01T06:47:07;2.77;;;1.83;;
3207;SDS011;1616;52.394;9.756;2023-08-01T06:49:33;2.30;;;2.10;;
3207;SDS011;1616;52.394;9.756;2023-08-01T06:51:59;2.57;;;2.37;;
3207;SDS011;1616;52.394;9.756;2023-08-01T06:54:24;3.87;;;1.80;;
3207;SDS011;1616;52.394;9.756;2023-08-01T06:56:50;2.67;;;1.60;;
3207;SDS011;1616;52.394;9.756;2023-08-01T06:59:16;4.03;;;1.90;;
3207;SDS011;1616;52.394;9.756;2023-08-01T07:01:42;2.47;;;1.50;;
3207;SDS011;1616;52.394;9.756;2023-08-01T07:04:12;3.27;;;1.77;;
3207;SDS011;1616;52.394;9.756;2023-08-01T07:06:39;8.47;;;2.13;;
3207;SDS011;1616;52.394;9.756;2023-08-01T07:09:05;2.47;;;2.30;;
3207;SDS011;1616;52.394;9.756;2023-08-01T07:11:31;6.33;;;2.20;;
3207;SDS011;1616;52.394;9.756;2023-08-01T07:13:57;3.57;;;1.90;;
3207;SDS011;1616;52.394;9.756;2023-08-01T07:16:23;3.13;;;2.17;;
3207;SDS011;1616;52.394;9.756;2023-08-01T07:18:49;3.50;;;2.60;;
3207;SDS011;1616;52.394;9.756;2023-08-01T07:21:16;7.30;;;3.00;;
3207;SDS011;1616;52.394;9.756;2023-08-01T07:23:42;8.03;;;2.73;;
3207;SDS011;1616;52.394;9.756;2023-08-01T07:26:08;2.33;;;2.13;;
3207;SDS011;1616;52.394;9.756;2023-08-01T07:28:34;4.60;;;2.67;;
3207;SDS011;1616;52.394;9.756;2023-08-01T07:31:01;9.23;;;2.67;;
3207;SDS011;1616;52.394;9.756;2023-08-01T07:33:31;4.30;;;2.13;;
3207;SDS011;1616;52.394;9.756;2023-08-01T07:35:58;6.10;;;2.33;;
3207;SDS011;1616;52.394;9.756;2023-08-01T07:38:24;5.27;;;3.20;;
3207;SDS011;1616;52.394;9.756;2023-08-01T07:40:51;7.10;;;3.67;;
3207;SDS011;1616;52.394;9.756;2023-08-01T07:43:17;5.23;;;3.53;;
3207;SDS011;1616;52.394;9.756;2023-08-01T07:45:44;3.40;;;2.63;;
3207;SDS011;1616;52.394;9.756;2023-08-01T07:48:10;7.47;;;3.63;;
3207;SDS011;1616;52.394;9.756;2023-08-01T07:50:36;9.20;;;3.07;;
3207;SDS011;1616;52.394;9.756;2023-08-01T07:53:01;8.27;;;3.47;;
3207;SDS011;1616;52.394;9.756;2023-08-01T07:55:27;3.70;;;2.90;;
3207;SDS011;1616;52.394;9.756;2023-08-01T07:57:52;5.27;;;2.47;;
3207;SDS011;1616;52.394;9.756;2023-08-01T08:00:18;4.03;;;3.13;;
3207;SDS011;1616;52.394;9.756;2023-08-01T08:02:44;3.17;;;2.43;;
3207;SDS011;1616;52.394;9.756;2023-08-01T08:05:11;5.80;;;3.10;;
3207;SDS011;1616;52.394;9.756;2023-08-01T08:07:37;3.37;;;3.07;;
3207;SDS011;1616;52.394;9.756;2023-08-01T08:10:04;3.23;;;2.93;;
3207;SDS011;1616;52.394;9.756;2023-08-01T08:12:30;5.90;;;2.80;;
3207;SDS011;1616;52.394;9.756;2023-08-01T08:14:56;5.83;;;2.80;;
3207;SDS011;1616;52.394;9.756;2023-08-01T08:17:22;2.53;;;2.10;;
3207;SDS011;1616;52.394;9.756;2023-08-01T08:19:48;2.47;;;2.27;;
3207;SDS011;1616;52.394;9.756;2023-08-01T08:22:13;20.03;;;2.57;;
3207;SDS011;1616;52.394;9.756;2023-08-01T08:24:39;3.67;;;2.63;;
3207;SDS011;1616;52.394;9.756;2023-08-01T08:27:05;2.50;;;2.30;;
3207;SDS011;1616;52.394;9.756;2023-08-01T08:29:31;7.10;;;2.23;;
3207;SDS011;1616;52.394;9.756;2023-08-01T08:31:57;5.10;;;2.57;;
3207;SDS011;1616;52.394;9.756;2023-08-01T08:34:23;5.80;;;2.40;;
3207;SDS011;1616;52.394;9.756;2023-08-01T08:36:49;8.60;;;3.07;;
3207;SDS011;1616;52.394;9.756;2023-08-01T08:39:16;5.40;;;2.63;;
3207;SDS011;1616;52.394;9.756;2023-08-01T08:41:46;2.70;;;2.50;;
3207;SDS011;1616;52.394;9.756;2023-08-01T08:44:14;5.10;;;2.53;;
3207;SDS011;1616;52.394;9.756;2023-08-01T08:46:42;6.10;;;2.73;;
3207;SDS011;1616;52.394;9.756;2023-08-01T08:49:09;13.03;;;2.60;;
3207;SDS011;1616;52.394;9.756;2023-08-01T08:51:36;10.23;;;1.80;;
3207;SDS011;1616;52.394;9.756;2023-08-01T08:54:03;3.33;;;1.70;;
3207;SDS011;1616;52.394;9.756;2023-08-01T08:56:31;2.40;;;1.70;;
3207;SDS011;1616;52.394;9.756;2023-08-01T08:58:58;2.63;;;1.90;;
3207;SDS011;1616;52.394;9.756;2023-08-01T09:01:25;2.37;;;2.17;;
3207;SDS011;1616;52.394;9.756;2023-08-01T09:03:51;4.87;;;1.67;;
3207;SDS011;1616;52.394;9.756;2023-08-01T09:06:29;2.67;;;1.90;;
3207;SDS011;1616;52.394;9.756;2023-08-01T09:09:04;5.50;;;1.60;;
3207;SDS011;1616;52.394;9.756;2023-08-01T09:11:55;3.57;;;1.53;;
3207;SDS011;1616;52.394;9.756;2023-08-01T09:14:21;3.20;;;1.60;;
3207;SDS011;1616;52.394;9.756;2023-08-01T09:16:47;2.43;;;1.57;;
3207;SDS011;1616;52.394;9.756;2023-08-01T09:19:20;3.70;;;1.50;;
3207;SDS011;1616;52.394;9.756;2023-08-01T09:21:47;2.20;;;1.30;;
3207;SDS011;1616;52.394;9.756;2023-08-01T09:26:39;2.27;;;1.33;;
3207;SDS011;1616;52.394;9.756;2023-08-01T09:29:06;1.70;;;1.33;;
3207;SDS011;1616;52.394;9.756;2023-08-01T09:31:36;2.67;;;1.43;;
3207;SDS011;1616;52.394;9.756;2023-08-01T09:34:04;3.07;;;1.33;;
3207;SDS011;1616;52.394;9.756;2023-08-01T09:36:31;3.73;;;1.50;;
3207;SDS011;1616;52.394;9.756;2023-08-01T09:38:58;1.43;;;1.17;;
3207;SDS011;1616;52.394;9.756;2023-08-01T09:41:25;1.73;;;1.10;;
3207;SDS011;1616;52.394;9.756;2023-08-01T09:43:51;1.93;;;1.30;;
3207;SDS011;1616;52.394;9.756;2023-08-01T09:46:17;3.33;;;1.30;;
3207;SDS011;1616;52.394;9.756;2023-08-01T09:48:43;3.63;;;1.10;;
3207;SDS011;1616;52.394;9.756;2023-08-01T09:51:09;1.40;;;1.03;;
3207;SDS011;1616;52.394;9.756;2023-08-01T09:53:46;1.60;;;1.10;;
3207;SDS011;1616;52.394;9.756;2023-08-01T09:56:20;2.23;;;1.20;;
3207;SDS011;1616;52.394;9.756;2023-08-01T09:58:50;2.30;;;1.13;;
3207;SDS011;1616;52.394;9.756;2023-08-01T10:01:19;1.87;;;1.23;;
3207;SDS011;1616;52.394;9.756;2023-08-01T10:03:46;1.40;;;1.20;;
3207;SDS011;1616;52.394;9.756;2023-08-01T10:06:17;1.60;;;1.30;;
3207;SDS011;1616;52.394;9.756;2023-08-01T10:08:48;1.37;;;1.10;;
3207;SDS011;1616;52.394;9.756;2023-08-01T10:11:19;1.37;;;1.17;;
3207;SDS011;1616;52.394;9.756;2023-08-01T10:13:46;1.93;;;1.40;;
3207;SDS011;1616;52.394;9.756;2023-08-01T10:16:13;3.17;;;1.20;;
3207;SDS011;1616;52.394;9.756;2023-08-01T10:18:39;6.30;;;1.10;;
3207;SDS011;1616;52.394;9.756;2023-08-01T10:21:06;1.47;;;1.10;;
3207;SDS011;1616;52.394;9.756;2023-08-01T10:23:34;1.80;;;1.40;;
3207;SDS011;1616;52.394;9.756;2023-08-01T10:26:01;1.97;;;1.20;;
3207;SDS011;1616;52.394;9.756;2023-08-01T10:28:39;3.10;;;1.20;;
3207;SDS011;1616;52.394;9.756;2023-08-01T10:31:09;1.30;;;1.20;;
3207;SDS011;1616;52.394;9.756;2023-08-01T10:33:37;2.50;;;1.40;;
3207;SDS011;1616;52.394;9.756;2023-08-01T10:36:13;1.40;;;1.10;;
3207;SDS011;1616;52.394;9.756;2023-08-01T10:38:55;1.83;;;1.10;;
3207;SDS011;1616;52.394;9.756;2023-08-01T10:44:03;1.53;;;1.20;;
3207;SDS011;1616;52.394;9.756;2023-08-01T10:46:45;2.70;;;1.20;;
3207;SDS011;1616;52.394;9.756;2023-08-01T10:49:11;1.67;;;1.33;;
3207;SDS011;1616;52.394;9.756;2023-08-01T10:51:37;2.23;;;1.23;;
3207;SDS011;1616;52.394;9.756;2023-08-01T10:54:02;2.70;;;1.10;;
3207;SDS011;1616;52.394;9.756;2023-08-01T10:56:28;2.53;;;1.40;;
3207;SDS011;1616;52.394;9.756;2023-08-01T10:58:56;1.50;;;1.30;;
3207;SDS011;1616;52.394;9.756;2023-08-01T11:01:23;3.07;;;1.30;;
3207;SDS011;1616;52.394;9.756;2023-08-01T11:03:49;1.60;;;1.10;;
3207;SDS011;1616;52.394;9.756;2023-08-01T11:06:16;1.70;;;1.20;;
3207;SDS011;1616;52.394;9.756;2023-08-01T11:08:42;1.70;;;1.33;;
3207;SDS011;1616;52.394;9.756;2023-08-01T11:11:11;6.20;;;1.40;;
3207;SDS011;1616;52.394;9.756;2023-08-01T11:13:38;2.83;;;1.27;;
3207;SDS011;1616;52.394;9.756;2023-08-01T11:16:04;2.27;;;1.50;;
3207;SDS011;1616;52.394;9.756;2023-08-01T11:18:41;3.30;;;1.30;;
3207;SDS011;1616;52.394;9.756;2023-08-01T11:21:10;2.70;;;1.13;;
3207;SDS011;1616;52.394;9.756;2023-08-01T11:23:36;1.37;;;1.10;;
3207;SDS011;1616;52.394;9.756;2023-08-01T11:26:06;3.30;;;1.20;;
3207;SDS011;1616;52.394;9.756;2023-08-01T11:28:35;2.13;;;1.40;;
3207;SDS011;1616;52.394;9.756;2023-08-01T11:31:09;3.30;;;0.90;;
3207;SDS011;1616;52.394;9.756;2023-08-01T11:33:37;1.87;;;1.10;;
3207;SDS011;1616;52.394;9.756;2023-08-01T11:36:03;2.37;;;1.20;;
3207;SDS011;1616;52.394;9.756;2023-08-01T11:38:29;2.33;;;1.13;;
3207;SDS011;1616;52.394;9.756;2023-08-01T11:40:58;1.23;;;0.80;;
3207;SDS011;1616;52.394;9.756;2023-08-01T11:43:24;1.77;;;0.90;;
3207;SDS011;1616;52.394;9.756;2023-08-01T11:45:54;2.07;;;1.10;;
3207;SDS011;1616;52.394;9.756;2023-08-01T11:48:21;2.30;;;1.30;;
3207;SDS011;1616;52.394;9.756;2023-08-01T11:50:48;1.63;;;1.23;;
3207;SDS011;1616;52.394;9.756;2023-08-01T11:53:22;2.50;;;1.40;;
3207;SDS011;1616;52.394;9.756;2023-08-01T11:55:49;1.50;;;1.40;;
3207;SDS011;1616;52.394;9.756;2023-08-01T11:58:27;1.30;;;1.07;;
3207;SDS011;1616;52.394;9.756;2023-08-01T12:01:07;1.90;;;1.47;;
3207;SDS011;1616;52.394;9.756;2023-08-01T12:03:50;1.30;;;1.10;;
3207;SDS011;1616;52.394;9.756;2023-08-01T12:06:19;1.60;;;1.30;;
3207;SDS011;1616;52.394;9.756;2023-08-01T12:08:47;1.67;;;1.17;;
3207;SDS011;1616;52.394;9.756;2023-08-01T12:11:18;2.27;;;1.23;;
3207;SDS011;1616;52.394;9.756;2023-08-01T12:13:45;1.80;;;1.33;;
3207;SDS011;1616;52.394;9.756;2023-08-01T12:16:11;3.17;;;1.50;;
3207;SDS011;1616;52.394;9.756;2023-08-01T12:18:38;1.60;;;1.20;;
3207;SDS011;1616;52.394;9.756;2023-08-01T12:21:04;3.63;;;1.53;;
3207;SDS011;1616;52.394;9.756;2023-08-01T12:23:31;2.20;;;1.20;;
3207;SDS011;1616;52.394;9.756;2023-08-01T12:25:57;2.50;;;1.50;;
3207;SDS011;1616;52.394;9.756;2023-08-01T12:28:22;1.70;;;1.20;;
3207;SDS011;1616;52.394;9.756;2023-08-01T12:30:48;1.73;;;1.40;;
3207;SDS011;1616;52.394;9.756;2023-08-01T12:33:16;1.90;;;1.30;;
3207;SDS011;1616;52.394;9.756;2023-08-01T12:35:42;1.10;;;0.90;;
3207;SDS011;1616;52.394;9.756;2023-08-01T12:38:08;1.43;;;1.10;;
3207;SDS011;1616;52.394;9.756;2023-08-01T12:40:34;1.50;;;1.10;;
3207;SDS011;1616;52.394;9.756;2023-08-01T12:43:00;1.60;;;1.00;;
3207;SDS011;1616;52.394;9.756;2023-08-01T12:45:26;2.13;;;1.10;;
3207;SDS011;1616;52.394;9.756;2023-08-01T12:47:51;1.40;;;1.10;;
3207;SDS011;1616;52.394;9.756;2023-08-01T12:50:17;1.43;;;1.20;;
3207;SDS011;1616;52.394;9.756;2023-08-01T12:52:42;1.60;;;1.20;;
3207;SDS011;1616;52.394;9.756;2023-08-01T12:55:08;1.50;;;1.20;;
3207;SDS011;1616;52.394;9.756;2023-08-01T12:57:34;1.20;;;1.10;;
3207;SDS011;1616;52.394;9.756;2023-08-01T13:00:00;1.63;;;1.10;;
3207;SDS011;1616;52.394;9.756;2023-08-01T13:02:28;1.53;;;1.23;;
3207;SDS011;1616;52.394;9.756;2023-08-01T13:04:54;2.00;;;1.20;;
3207;SDS011;1616;52.394;9.756;2023-08-01T13:07:20;2.73;;;1.30;;
3207;SDS011;1616;52.394;9.756;2023-08-01T13:09:45;1.80;;;1.03;;
3207;SDS011;1616;52.394;9.756;2023-08-01T13:12:11;4.20;;;1.43;;
3207;SDS011;1616;52.394;9.756;2023-08-01T13:14:36;1.70;;;1.20;;
3207;SDS011;1616;52.394;9.756;2023-08-01T13:17:02;2.70;;;1.20;;
3207;SDS011;1616;52.394;9.756;2023-08-01T13:19:28;2.10;;;1.30;;
3207;SDS011;1616;52.394;9.756;2023-08-01T13:21:54;3.50;;;1.47;;
3207;SDS011;1616;52.394;9.756;2023-08-01T13:24:19;2.67;;;1.43;;
3207;SDS011;1616;52.394;9.756;2023-08-01T13:26:45;1.87;;;1.50;;
3207;SDS011;1616;52.394;9.756;2023-08-01T13:29:10;6.80;;;1.50;;
3207;SDS011;1616;52.394;9.756;2023-08-01T13:31:37;2.20;;;1.47;;
3207;SDS011;1616;52.394;9.756;2023-08-01T13:34:02;3.03;;;1.50;;
3207;SDS011;1616;52.394;9.756;2023-08-01T13:36:28;1.43;;;1.30;;
3207;SDS011;1616;52.394;9.756;2023-08-01T13:38:54;2.90;;;1.70;;
3207;SDS011;1616;52.394;9.756;2023-08-01T13:41:20;4.13;;;1.20;;
3207;SDS011;1616;52.394;9.756;2023-08-01T13:43:45;1.20;;;1.00;;
3207;SDS011;1616;52.394;9.756;2023-08-01T13:46:15;1.97;;;1.30;;
3207;SDS011;1616;52.394;9.756;2023-08-01T13:48:42;2.43;;;1.50;;
3207;SDS011;1616;52.394;9.756;2023-08-01T13:51:08;2.77;;;1.10;;
3207;SDS011;1616;52.394;9.756;2023-08-01T13:53:35;1.70;;;1.20;;
3207;SDS011;1616;52.394;9.756;2023-08-01T13:56:09;1.60;;;1.20;;
3207;SDS011;1616;52.394;9.756;2023-08-01T13:58:36;2.17;;;1.23;;
3207;SDS011;1616;52.394;9.756;2023-08-01T14:01:06;3.90;;;1.07;;
3207;SDS011;1616;52.394;9.756;2023-08-01T14:03:33;2.47;;;1.10;;
3207;SDS011;1616;52.394;9.756;2023-08-01T14:06:03;1.30;;;1.20;;
3207;SDS011;1616;52.394;9.756;2023-08-01T14:08:30;4.70;;;1.10;;
3207;SDS011;1616;52.394;9.756;2023-08-01T14:10:56;1.93;;;1.10;;
3207;SDS011;1616;52.394;9.756;2023-08-01T14:13:22;1.90;;;1.10;;
3207;SDS011;1616;52.394;9.756;2023-08-01T14:15:47;1.73;;;1.10;;
3207;SDS011;1616;52.394;9.756;2023-08-01T14:18:13;2.53;;;1.00;;
3207;SDS011;1616;52.394;9.756;2023-08-01T14:20:39;4.07;;;1.40;;
3207;SDS011;1616;52.394;9.756;2023-08-01T14:23:04;1.30;;;0.90;;
3207;SDS011;1616;52.394;9.756;2023-08-01T14:25:30;2.60;;;1.00;;
3207;SDS011;1616;52.394;9.756;2023-08-01T14:27:56;4.17;;;1.20;;
3207;SDS011;1616;52.394;9.756;2023-08-01T14:30:22;1.77;;;0.90;;
3207;SDS011;1616;52.394;9.756;2023-08-01T14:32:47;1.43;;;1.10;;
3207;SDS011;1616;52.394;9.756;2023-08-01T14:35:13;1.33;;;1.07;;
3207;SDS011;1616;52.394;9.756;2023-08-01T14:37:38;1.80;;;0.97;;
3207;SDS011;1616;52.394;9.756;2023-08-01T14:40:07;5.50;;;0.93;;
3207;SDS011;1616;52.394;9.756;2023-08-01T14:42:33;2.97;;;0.97;;
3207;SDS011;1616;52.394;9.756;2023-08-01T14:44:58;1.77;;;0.90;;
3207;SDS011;1616;52.394;9.756;2023-08-01T14:47:24;1.43;;;0.90;;
3207;SDS011;1616;52.394;9.756;2023-08-01T14:49:50;1.83;;;1.10;;
3207;SDS011;1616;52.394;9.756;2023-08-01T14:52:16;3.83;;;1.00;;
3207;SDS011;1616;52.394;9.756;2023-08-01T14:54:42;1.67;;;0.90;;
3207;SDS011;1616;52.394;9.756;2023-08-01T14:57:07;1.30;;;0.80;;
3207;SDS011;1616;52.394;9.756;2023-08-01T14:59:34;1.10;;;0.70;;
3207;SDS011;1616;52.394;9.756;2023-08-01T15:01:59;1.30;;;0.80;;
3207;SDS011;1616;52.394;9.756;2023-08-01T15:04:25;1.17;;;0.80;;
3207;SDS011;1616;52.394;9.756;2023-08-01T15:06:51;3.60;;;0.80;;
3207;SDS011;1616;52.394;9.756;2023-08-01T15:09:17;1.43;;;0.83;;
3207;SDS011;1616;52.394;9.756;2023-08-01T15:11:43;1.10;;;0.80;;
3207;SDS011;1616;52.394;9.756;2023-08-01T15:14:08;1.90;;;1.30;;
3207;SDS011;1616;52.394;9.756;2023-08-01T15:16:34;2.07;;;1.90;;
3207;SDS011;1616;52.394;9.756;2023-08-01T15:18:59;1.07;;;0.80;;